createdAt,value
2019-03-05T00:05:12.010Z,6.94
2019-03-05T00:11:16.863Z,6.96
2019-03-05T00:17:21.454Z,7.05
2019-03-05T00:23:49.025Z,6.90
2019-03-05T00:30:18.320Z,6.61
2019-03-05T00:36:33.402Z,6.22
2019-03-05T00:43:09.905Z,5.92
2019-03-05T00:49:24.998Z,5.65
2019-03-05T00:55:50.151Z,5.64
2019-03-05T01:02:21.462Z,5.74
2019-03-05T01:08:26.846Z,5.90
2019-03-05T01:14:32.359Z,5.83
2019-03-05T01:20:37.047Z,5.97
2019-03-05T01:26:41.681Z,5.95
2019-03-05T01:32:48.468Z,6.10
2019-03-05T01:38:54.648Z,6.15
2019-03-05T01:44:59.241Z,6.14
2019-03-05T01:51:04.084Z,6.20
2019-03-05T01:57:08.695Z,6.06
2019-03-05T02:03:13.452Z,6.14
2019-03-05T02:09:18.552Z,6.26
2019-03-05T02:15:23.162Z,6.29
2019-03-05T02:21:27.731Z,6.16
2019-03-05T02:28:02.068Z,6.35
2019-03-05T02:34:26.154Z,6.42
2019-03-05T02:40:40.974Z,6.43
2019-03-05T02:47:34.386Z,6.38
2019-03-05T02:54:21.326Z,6.44
2019-03-05T03:00:33.607Z,6.48
2019-03-05T03:06:38.882Z,6.46
2019-03-05T03:12:45.664Z,6.59
2019-03-05T03:18:50.504Z,6.54
2019-03-05T03:24:55.142Z,6.55
2019-03-05T03:30:59.688Z,6.55
2019-03-05T03:37:04.476Z,6.57
2019-03-05T03:43:09.093Z,6.55
2019-03-05T03:49:13.874Z,6.39
2019-03-05T03:55:18.724Z,6.45
2019-03-05T04:01:23.277Z,6.51
2019-03-05T04:07:28.012Z,6.45
2019-03-05T04:13:32.643Z,6.42
2019-03-05T04:19:37.309Z,6.42
2019-03-05T04:25:41.839Z,6.47
2019-03-05T04:31:47.624Z,6.29
2019-03-05T04:37:52.157Z,6.33
2019-03-05T04:43:56.718Z,6.20
2019-03-05T04:50:02.904Z,6.21
2019-03-05T04:56:07.645Z,6.05
2019-03-05T05:02:12.640Z,6.00
2019-03-05T05:08:17.572Z,5.96
2019-03-05T05:14:23.128Z,5.90
2019-03-05T05:20:27.955Z,5.76
2019-03-05T05:26:32.717Z,5.46
2019-03-05T05:32:37.372Z,4.71
2019-03-05T05:38:42.043Z,4.25
2019-03-05T05:44:46.732Z,3.86
2019-03-05T05:50:51.433Z,3.88
2019-03-05T05:56:56.175Z,3.99
2019-03-05T06:03:00.954Z,4.04
2019-03-05T06:09:07.041Z,4.11
2019-03-05T06:15:15.816Z,4.10
2019-03-05T06:21:20.623Z,4.21
2019-03-05T06:27:25.322Z,4.33
2019-03-05T06:33:30.058Z,4.29
2019-03-05T06:39:34.615Z,4.50
2019-03-05T06:45:39.553Z,4.74
2019-03-05T06:51:44.316Z,4.83
2019-03-05T06:57:49.201Z,5.02
2019-03-05T07:03:53.817Z,4.98
2019-03-05T07:10:11.940Z,5.16
2019-03-05T07:16:30.145Z,5.32
2019-03-05T07:22:57.261Z,5.52
2019-03-05T07:29:02.126Z,5.49
2019-03-05T07:35:11.531Z,5.69
2019-03-05T07:41:16.473Z,5.81
2019-03-05T07:47:21.022Z,5.98
2019-03-05T07:53:25.579Z,5.87
2019-03-05T07:59:51.156Z,5.93
2019-03-05T08:05:55.728Z,5.90
2019-03-05T08:12:10.488Z,5.94
2019-03-05T08:18:15.233Z,6.13
2019-03-05T08:24:19.858Z,6.37
2019-03-05T08:30:24.468Z,6.45
2019-03-05T08:36:29.076Z,6.46
2019-03-05T08:42:33.626Z,6.46
2019-03-05T08:48:38.182Z,6.33
2019-03-05T08:54:45.301Z,6.29
2019-03-05T09:00:49.081Z,6.40
2019-03-05T09:06:53.707Z,6.37
2019-03-05T09:12:58.337Z,6.38
2019-03-05T09:19:02.970Z,6.36
2019-03-05T09:25:12.135Z,6.51
2019-03-05T09:31:17.105Z,6.60
2019-03-05T09:37:21.892Z,6.65
2019-03-05T09:43:26.443Z,6.58
2019-03-05T09:49:31.136Z,6.47
2019-03-05T09:55:36.629Z,6.58
2019-03-05T10:01:41.411Z,6.70
2019-03-05T10:07:46.975Z,6.84
2019-03-05T10:13:51.614Z,6.91
2019-03-05T10:19:56.184Z,6.49
2019-03-05T10:26:00.815Z,6.56
2019-03-05T10:32:05.803Z,6.64
2019-03-05T10:38:11.936Z,6.52
2019-03-05T10:44:17.450Z,6.77
2019-03-05T10:50:26.812Z,6.78
2019-03-05T10:56:31.555Z,7.01
2019-03-05T11:02:36.388Z,6.93
2019-03-05T11:08:41.542Z,7.04
2019-03-05T11:14:46.269Z,6.89
2019-03-05T11:20:51.050Z,6.95
2019-03-05T11:26:56.214Z,6.75
2019-03-05T11:33:00.921Z,6.85
2019-03-05T11:39:07.341Z,6.93
2019-03-05T11:45:21.956Z,6.94
2019-03-05T11:51:26.729Z,6.86
2019-03-05T11:57:31.839Z,6.82
2019-03-05T12:03:36.956Z,7.02
2019-03-05T12:09:41.645Z,6.82
2019-03-05T12:15:46.943Z,6.70
2019-03-05T12:21:51.490Z,7.05
2019-03-05T12:27:56.327Z,7.09
2019-03-05T12:34:00.886Z,7.28
2019-03-05T12:40:08.360Z,7.72
2019-03-05T12:46:12.938Z,7.46
2019-03-05T12:52:17.826Z,7.47
2019-03-05T12:58:22.988Z,8.09
2019-03-05T13:04:27.538Z,8.57
2019-03-05T13:10:35.927Z,8.65
2019-03-05T13:16:41.078Z,7.92
2019-03-05T13:22:46.374Z,7.83
2019-03-05T13:28:51.164Z,8.06
2019-03-05T13:34:55.875Z,8.19
2019-03-05T13:41:00.659Z,8.21
2019-03-05T13:47:05.941Z,7.91
2019-03-05T13:54:00.496Z,7.82
2019-03-05T13:59:58.168Z,7.96
2019-03-05T14:06:22.627Z,8.05
2019-03-05T14:12:27.430Z,7.78
2019-03-05T14:18:31.990Z,7.77
2019-03-05T14:24:36.710Z,7.53
2019-03-05T14:30:42.219Z,7.59
2019-03-05T14:36:47.991Z,7.52
2019-03-05T14:42:52.836Z,7.59
2019-03-05T14:48:57.717Z,8.38
2019-03-05T14:55:02.499Z,8.93
2019-03-05T15:01:08.973Z,8.92
2019-03-05T15:07:14.190Z,8.73
2019-03-05T15:13:20.169Z,8.60
2019-03-05T15:19:25.234Z,8.67
2019-03-05T15:25:29.850Z,8.55
2019-03-05T15:31:34.387Z,9.05
2019-03-05T15:37:39.130Z,9.14
2019-03-05T15:43:43.836Z,8.85
2019-03-05T15:49:49.634Z,8.68
2019-03-05T15:55:56.038Z,8.67
2019-03-05T16:02:00.505Z,9.25
2019-03-05T16:08:05.053Z,9.78
2019-03-05T16:14:09.601Z,8.91
2019-03-05T16:20:19.655Z,9.95
2019-03-05T16:26:24.869Z,11.22
2019-03-05T16:32:33.833Z,12.53
2019-03-05T16:38:56.151Z,11.83
2019-03-05T16:45:08.317Z,10.19
2019-03-05T16:51:17.469Z,9.11
2019-03-05T16:57:39.019Z,8.59
2019-03-05T17:03:45.494Z,8.06
2019-03-05T17:10:00.897Z,7.93
2019-03-05T17:16:05.521Z,7.58
2019-03-05T17:22:10.076Z,7.02
2019-03-05T17:28:15.819Z,6.86
2019-03-05T17:34:20.768Z,6.68
2019-03-05T17:40:25.362Z,6.99
2019-03-05T17:46:29.920Z,6.70
2019-03-05T17:52:34.847Z,6.77
2019-03-05T17:58:39.402Z,6.54
2019-03-05T18:04:44.371Z,6.39
2019-03-05T18:10:49.017Z,6.06
2019-03-05T18:16:53.664Z,5.98
2019-03-05T18:22:58.616Z,5.77
2019-03-05T18:29:03.175Z,5.58
2019-03-05T18:35:10.250Z,5.38
2019-03-05T18:41:15.105Z,5.53
2019-03-05T18:47:19.857Z,5.26
2019-03-05T18:53:24.677Z,5.23
2019-03-05T18:59:29.305Z,5.06
2019-03-05T19:05:33.968Z,4.81
2019-03-05T19:11:38.511Z,4.69
2019-03-05T19:17:44.318Z,4.72
2019-03-05T19:23:49.228Z,4.63
2019-03-05T19:29:53.787Z,4.55
2019-03-05T19:35:58.659Z,4.72
2019-03-05T19:42:04.075Z,4.46
2019-03-05T19:48:09.059Z,4.43
2019-03-05T19:54:13.594Z,4.33
2019-03-05T20:00:31.157Z,4.47
2019-03-05T20:06:35.999Z,4.22
2019-03-05T20:12:40.815Z,4.20
2019-03-05T20:18:45.642Z,4.32
2019-03-05T20:24:50.327Z,4.28
2019-03-05T20:30:54.889Z,4.15
2019-03-05T20:36:59.756Z,4.27
2019-03-05T20:43:05.609Z,4.39
2019-03-05T20:49:10.233Z,4.07
2019-03-05T20:55:23.472Z,4.06
2019-03-05T21:01:28.171Z,4.06
2019-03-05T21:07:32.788Z,4.10
2019-03-05T21:13:37.478Z,4.17
2019-03-05T21:19:42.119Z,4.10
2019-03-05T21:25:47.901Z,4.02
2019-03-05T21:31:52.545Z,4.06
2019-03-05T21:37:57.823Z,4.00
2019-03-05T21:44:02.632Z,3.88
2019-03-05T21:50:11.944Z,3.95
2019-03-05T21:56:17.084Z,4.04
2019-03-05T22:02:22.964Z,4.04
2019-03-05T22:08:27.657Z,4.25
2019-03-05T22:14:32.347Z,4.22
2019-03-05T22:20:37.143Z,4.49
2019-03-05T22:26:41.687Z,4.35
2019-03-05T22:32:47.647Z,4.35
2019-03-05T22:38:52.195Z,4.37
2019-03-05T22:44:56.895Z,4.21
2019-03-05T22:51:01.928Z,4.35
2019-03-05T22:57:06.620Z,4.09
2019-03-05T23:03:16.103Z,4.15
2019-03-05T23:09:22.498Z,4.05
2019-03-05T23:15:27.372Z,3.94
2019-03-05T23:21:32.179Z,3.82
2019-03-05T23:27:36.992Z,3.91
2019-03-05T23:33:41.792Z,3.81
2019-03-05T23:39:47.398Z,3.85
2019-03-05T23:45:52.073Z,3.72
2019-03-05T23:51:56.665Z,3.54
2019-03-05T23:58:01.632Z,3.69
